Time;durP1;ratioP1;P1;durP2;ratioP2;P2;SDS_P1;SDS_P2;PMS_P1;PMS_P2;Temp;Humidity;BMP_temperature;BMP_pressure;BME280_temperature;BME280_humidity;BME280_pressure;Samples;Min_cycle;Max_cycle;Signal;HPM_P1;HPM_P2
2023/06/11 00:01:51;;;;;;;1.05;1.05;;;;;;;;;;7401635;19;20480;-90
2023/06/11 00:04:24;;;;;;;0.65;0.60;;;;;;;;;;7403597;19;20169;-90
2023/06/11 00:06:56;;;;;;;0.77;0.77;;;;;;;;;;7402313;19;20605;-89
2023/06/11 00:09:23;;;;;;;0.73;0.73;;;;;;;;;;7399132;19;20248;-90
2023/06/11 00:11:52;;;;;;;0.77;0.77;;;;;;;;;;7400641;19;20833;-90
2023/06/11 00:14:23;;;;;;;0.88;0.88;;;;;;;;;;7399141;19;20152;-90
2023/06/11 00:16:50;;;;;;;0.63;0.63;;;;;;;;;;7401408;19;20138;-91
2023/06/11 00:19:19;;;;;;;1.27;0.70;;;;;;;;;;7399019;19;20145;-91
2023/06/11 00:21:48;;;;;;;0.40;0.40;;;;;;;;;;7398282;19;20232;-89
2023/06/11 00:24:16;;;;;;;2.15;0.90;;;;;;;;;;7399092;19;20137;-90
2023/06/11 00:26:43;;;;;;;0.73;0.73;;;;;;;;;;7399578;19;20821;-89
2023/06/11 00:29:10;;;;;;;0.88;0.88;;;;;;;;;;7398640;19;20133;-89
2023/06/11 00:31:37;;;;;;;0.98;0.80;;;;;;;;;;7401188;19;20224;-89
2023/06/11 00:34:04;;;;;;;0.80;0.80;;;;;;;;;;7402700;19;20153;-90
2023/06/11 00:36:32;;;;;;;1.15;0.90;;;;;;;;;;7401214;19;20498;-89
2023/06/11 00:38:59;;;;;;;1.20;1.20;;;;;;;;;;7402419;19;20643;-89
2023/06/11 00:41:29;;;;;;;1.23;1.23;;;;;;;;;;7402068;19;20152;-89
2023/06/11 00:43:56;;;;;;;1.08;0.98;;;;;;;;;;7402652;19;20598;-90
2023/06/11 00:46:24;;;;;;;0.90;0.88;;;;;;;;;;7403360;19;20498;-89
2023/06/11 00:48:51;;;;;;;0.90;0.90;;;;;;;;;;7402618;19;20141;-89
2023/06/11 00:51:21;;;;;;;0.88;0.88;;;;;;;;;;7401975;19;20232;-89
2023/06/11 00:53:48;;;;;;;0.60;0.60;;;;;;;;;;7400432;19;20141;-89
2023/06/11 00:56:17;;;;;;;0.70;0.70;;;;;;;;;;7399996;19;20555;-90
2023/06/11 00:58:47;;;;;;;1.00;0.90;;;;;;;;;;7392985;19;20614;-90
2023/06/11 01:01:19;;;;;;;1.02;0.98;;;;;;;;;;7394860;19;20141;-91
2023/06/11 01:03:46;;;;;;;0.50;0.50;;;;;;;;;;7397778;19;20140;-91
2023/06/11 01:06:17;;;;;;;0.73;0.73;;;;;;;;;;7393566;19;20208;-91
2023/06/11 01:08:52;;;;;;;0.70;0.70;;;;;;;;;;7392240;19;20164;-91
2023/06/11 01:11:21;;;;;;;7.93;1.25;;;;;;;;;;7394862;19;20157;-92
2023/06/11 01:13:48;;;;;;;0.80;0.80;;;;;;;;;;7394305;19;20567;-91
2023/06/11 01:16:24;;;;;;;2.95;0.98;;;;;;;;;;7393792;19;20500;-91
2023/06/11 01:19:03;;;;;;;0.65;0.65;;;;;;;;;;7394483;19;20216;-91
2023/06/11 01:21:41;;;;;;;0.63;0.63;;;;;;;;;;7392865;19;20152;-90
2023/06/11 01:24:21;;;;;;;0.60;0.60;;;;;;;;;;7395102;19;20135;-91
2023/06/11 01:27:08;;;;;;;0.82;0.82;;;;;;;;;;7395974;19;20152;-91
2023/06/11 01:29:37;;;;;;;0.88;0.77;;;;;;;;;;7393743;19;20151;-92
2023/06/11 01:32:04;;;;;;;1.20;1.05;;;;;;;;;;7393641;19;20213;-91
2023/06/11 01:34:31;;;;;;;0.60;0.60;;;;;;;;;;7396292;19;20139;-91
2023/06/11 01:36:59;;;;;;;0.30;0.30;;;;;;;;;;7391122;19;20136;-90
2023/06/11 01:39:26;;;;;;;0.88;0.88;;;;;;;;;;7393368;19;20135;-92
2023/06/11 01:41:54;;;;;;;0.63;0.63;;;;;;;;;;7396002;19;20220;-91
2023/06/11 01:44:22;;;;;;;1.42;1.33;;;;;;;;;;7395730;19;20481;-92
2023/06/11 01:46:48;;;;;;;0.52;0.52;;;;;;;;;;7395763;19;20194;-90
2023/06/11 01:49:15;;;;;;;0.90;0.90;;;;;;;;;;7393064;19;20540;-90
2023/06/11 01:51:42;;;;;;;1.35;1.35;;;;;;;;;;7392134;19;20145;-90
2023/06/11 01:54:08;;;;;;;0.85;0.85;;;;;;;;;;7393139;19;20140;-90
2023/06/11 01:56:35;;;;;;;1.13;1.13;;;;;;;;;;7396241;19;20808;-91
2023/06/11 01:59:02;;;;;;;1.10;0.88;;;;;;;;;;7409133;19;20151;-91
2023/06/11 02:01:28;;;;;;;1.00;1.00;;;;;;;;;;7411808;19;20148;-91
2023/06/11 02:03:55;;;;;;;0.63;0.63;;;;;;;;;;7409427;19;20158;-91
2023/06/11 02:06:23;;;;;;;0.93;0.93;;;;;;;;;;7403565;19;20149;-90
2023/06/11 02:08:49;;;;;;;0.70;0.70;;;;;;;;;;7408846;19;20137;-90
2023/06/11 02:11:16;;;;;;;0.52;0.52;;;;;;;;;;7399827;19;20228;-91
2023/06/11 02:13:43;;;;;;;0.40;0.40;;;;;;;;;;7399238;19;20137;-91
2023/06/11 02:16:09;;;;;;;0.73;0.73;;;;;;;;;;7392942;19;20133;-91
2023/06/11 02:18:36;;;;;;;1.02;0.68;;;;;;;;;;7396469;19;20129;-91
2023/06/11 02:21:03;;;;;;;1.08;1.08;;;;;;;;;;7388640;19;20516;-91
2023/06/11 02:23:30;;;;;;;0.57;0.57;;;;;;;;;;7392763;19;20617;-91
2023/06/11 02:25:56;;;;;;;0.57;0.57;;;;;;;;;;7392053;19;20605;-91
2023/06/11 02:28:23;;;;;;;0.73;0.73;;;;;;;;;;7392232;19;20144;-91
2023/06/11 02:30:50;;;;;;;1.88;0.80;;;;;;;;;;7391678;19;20141;-91
2023/06/11 02:33:16;;;;;;;0.88;0.88;;;;;;;;;;7412777;19;20140;-91
2023/06/11 02:35:43;;;;;;;0.90;0.90;;;;;;;;;;7435058;19;20181;-90
2023/06/11 02:38:10;;;;;;;0.82;0.82;;;;;;;;;;7432605;19;20125;-91
2023/06/11 02:40:36;;;;;;;0.75;0.75;;;;;;;;;;7433823;19;20129;-93
2023/06/11 02:43:03;;;;;;;0.80;0.80;;;;;;;;;;7417446;19;20165;-92
2023/06/11 02:45:30;;;;;;;0.70;0.70;;;;;;;;;;7403103;19;20504;-90
2023/06/11 02:47:56;;;;;;;0.75;0.75;;;;;;;;;;7401681;19;20619;-92
2023/06/11 02:50:23;;;;;;;0.65;0.65;;;;;;;;;;7401178;19;20117;-92
2023/06/11 02:52:50;;;;;;;2.85;0.60;;;;;;;;;;7400421;19;20584;-92
2023/06/11 02:55:16;;;;;;;0.50;0.50;;;;;;;;;;7400321;19;20145;-92
2023/06/11 02:57:43;;;;;;;0.50;0.50;;;;;;;;;;7399421;19;20141;-92
2023/06/11 03:00:10;;;;;;;0.70;0.70;;;;;;;;;;7397659;19;20160;-92
2023/06/11 03:02:37;;;;;;;0.73;0.73;;;;;;;;;;7399972;19;20792;-92
2023/06/11 03:05:04;;;;;;;0.70;0.70;;;;;;;;;;7403193;19;20649;-91
2023/06/11 03:07:33;;;;;;;0.70;0.70;;;;;;;;;;7399611;19;20149;-92
2023/06/11 03:10:00;;;;;;;0.85;0.85;;;;;;;;;;7399760;19;20189;-91
2023/06/11 03:12:27;;;;;;;0.90;0.82;;;;;;;;;;7399417;19;20169;-92
2023/06/11 03:14:53;;;;;;;1.05;1.05;;;;;;;;;;7403296;19;20144;-91
2023/06/11 03:17:20;;;;;;;1.05;0.65;;;;;;;;;;7430982;19;20134;-91
2023/06/11 03:19:47;;;;;;;0.63;0.63;;;;;;;;;;7436008;19;20161;-89
2023/06/11 03:22:14;;;;;;;1.02;0.80;;;;;;;;;;7431992;19;20189;-91
2023/06/11 03:24:41;;;;;;;0.73;0.73;;;;;;;;;;7436200;19;20132;-91
2023/06/11 03:27:08;;;;;;;1.00;1.00;;;;;;;;;;7433357;19;20113;-93
2023/06/11 03:29:35;;;;;;;0.68;0.65;;;;;;;;;;7433102;19;20129;-93
2023/06/11 03:32:02;;;;;;;0.57;0.57;;;;;;;;;;7432546;19;20169;-93
2023/06/11 03:34:28;;;;;;;0.80;0.80;;;;;;;;;;7434650;19;20173;-91
2023/06/11 03:36:55;;;;;;;0.40;0.40;;;;;;;;;;7431246;19;20161;-92
2023/06/11 03:39:22;;;;;;;0.90;0.90;;;;;;;;;;7431486;19;20137;-93
2023/06/11 03:41:48;;;;;;;1.25;0.93;;;;;;;;;;7411859;19;20194;-92
2023/06/11 03:44:15;;;;;;;1.13;1.02;;;;;;;;;;7402263;19;20151;-92
2023/06/11 03:46:42;;;;;;;1.08;0.98;;;;;;;;;;7401092;19;20141;-92
2023/06/11 03:49:09;;;;;;;0.52;0.52;;;;;;;;;;7398405;19;20169;-92
2023/06/11 03:51:36;;;;;;;0.52;0.52;;;;;;;;;;7397796;19;20228;-92
2023/06/11 03:54:02;;;;;;;1.15;1.15;;;;;;;;;;7398119;19;20473;-92
2023/06/11 03:56:29;;;;;;;0.77;0.77;;;;;;;;;;7397570;19;20157;-91
2023/06/11 03:58:56;;;;;;;0.45;0.45;;;;;;;;;;7399267;19;20186;-91
2023/06/11 04:01:23;;;;;;;0.68;0.68;;;;;;;;;;7399252;19;20517;-91
2023/06/11 04:03:50;;;;;;;0.63;0.63;;;;;;;;;;7400253;19;20148;-91
2023/06/11 04:06:17;;;;;;;0.75;0.75;;;;;;;;;;7402124;19;20141;-92
2023/06/11 04:08:44;;;;;;;1.35;1.08;;;;;;;;;;7396291;19;20133;-92
2023/06/11 04:11:11;;;;;;;0.82;0.75;;;;;;;;;;7399338;19;20193;-91
2023/06/11 04:13:37;;;;;;;0.50;0.50;;;;;;;;;;7396826;19;20145;-91
2023/06/11 04:16:05;;;;;;;1.80;0.93;;;;;;;;;;7393226;19;20129;-91
2023/06/11 04:18:32;;;;;;;0.57;0.57;;;;;;;;;;7395787;19;20217;-91
2023/06/11 04:20:59;;;;;;;1.20;0.93;;;;;;;;;;7393341;19;20135;-91
2023/06/11 04:23:26;;;;;;;0.60;0.60;;;;;;;;;;7398395;19;20139;-93
2023/06/11 04:25:55;;;;;;;0.40;0.40;;;;;;;;;;7399575;19;20129;-91
2023/06/11 04:28:23;;;;;;;0.60;0.60;;;;;;;;;;7396974;19;20144;-91
2023/06/11 04:30:49;;;;;;;0.60;0.60;;;;;;;;;;7399630;19;20136;-91
2023/06/11 04:33:16;;;;;;;1.08;0.75;;;;;;;;;;7397327;19;20500;-91
2023/06/11 04:35:43;;;;;;;0.73;0.73;;;;;;;;;;7394596;19;20140;-91
2023/06/11 04:38:10;;;;;;;0.98;0.95;;;;;;;;;;7394933;19;20169;-90
2023/06/11 04:40:37;;;;;;;1.58;1.48;;;;;;;;;;7395512;19;20144;-91
2023/06/11 04:43:04;;;;;;;0.80;0.80;;;;;;;;;;7394308;19;20147;-92
2023/06/11 04:45:33;;;;;;;0.55;0.55;;;;;;;;;;7398710;19;20483;-91
2023/06/11 04:48:03;;;;;;;0.90;0.90;;;;;;;;;;7397247;19;20636;-91
2023/06/11 04:50:31;;;;;;;2.25;0.95;;;;;;;;;;7394162;19;20137;-92
2023/06/11 04:53:01;;;;;;;0.75;0.75;;;;;;;;;;7395287;19;20165;-91
2023/06/11 04:55:28;;;;;;;2.40;1.23;;;;;;;;;;7396305;19;20492;-91
2023/06/11 04:57:55;;;;;;;0.65;0.65;;;;;;;;;;7392835;19;20133;-91
2023/06/11 05:00:22;;;;;;;0.80;0.80;;;;;;;;;;7393650;19;20507;-92
2023/06/11 05:02:49;;;;;;;0.80;0.73;;;;;;;;;;7392671;19;20164;-92
2023/06/11 05:05:16;;;;;;;1.23;1.15;;;;;;;;;;7393640;19;20165;-91
2023/06/11 05:07:43;;;;;;;1.02;1.02;;;;;;;;;;7396562;19;20155;-91
2023/06/11 05:10:10;;;;;;;0.47;0.47;;;;;;;;;;7394546;19;20152;-91
2023/06/11 05:12:37;;;;;;;0.98;0.98;;;;;;;;;;7389964;19;20168;-91
2023/06/11 05:15:04;;;;;;;0.80;0.80;;;;;;;;;;7393232;19;20148;-92
2023/06/11 05:17:32;;;;;;;1.00;1.00;;;;;;;;;;7394855;19;20137;-90
2023/06/11 05:19:59;;;;;;;2.10;0.98;;;;;;;;;;7393429;19;20137;-91
2023/06/11 05:22:26;;;;;;;0.85;0.85;;;;;;;;;;7392620;19;20160;-91
2023/06/11 05:24:53;;;;;;;3.05;1.42;;;;;;;;;;7394201;19;20527;-91
2023/06/11 05:27:21;;;;;;;0.85;0.85;;;;;;;;;;7391891;19;20137;-91
2023/06/11 05:29:47;;;;;;;1.13;1.13;;;;;;;;;;7390445;19;20137;-92
2023/06/11 05:32:14;;;;;;;1.05;1.02;;;;;;;;;;7389807;19;20224;-91
2023/06/11 05:34:43;;;;;;;1.17;1.08;;;;;;;;;;7388849;19;20158;-91
2023/06/11 05:37:10;;;;;;;0.88;0.88;;;;;;;;;;7390337;19;20155;-91
2023/06/11 05:39:36;;;;;;;1.30;1.25;;;;;;;;;;7389191;19;20157;-91
2023/06/11 05:42:03;;;;;;;0.80;0.80;;;;;;;;;;7390041;19;20143;-91
2023/06/11 05:44:30;;;;;;;1.23;1.17;;;;;;;;;;7391630;19;20137;-92
2023/06/11 05:46:57;;;;;;;1.35;1.27;;;;;;;;;;7390967;19;20137;-91
2023/06/11 05:49:24;;;;;;;0.88;0.88;;;;;;;;;;7389006;19;20486;-91
2023/06/11 05:51:50;;;;;;;1.13;1.02;;;;;;;;;;7389701;19;20212;-91
2023/06/11 05:54:17;;;;;;;0.95;0.95;;;;;;;;;;7390195;19;20552;-92
2023/06/11 05:56:45;;;;;;;1.10;1.10;;;;;;;;;;7387481;19;20609;-91
2023/06/11 05:59:11;;;;;;;1.08;1.08;;;;;;;;;;7390452;19;20188;-92
2023/06/11 06:01:38;;;;;;;0.55;0.55;;;;;;;;;;7389611;19;20155;-91
2023/06/11 06:04:05;;;;;;;1.23;1.23;;;;;;;;;;7390686;19;20133;-91
2023/06/11 06:06:33;;;;;;;1.17;0.93;;;;;;;;;;7394140;19;20136;-91
2023/06/11 06:09:00;;;;;;;1.67;1.42;;;;;;;;;;7396113;19;20137;-90
2023/06/11 06:11:26;;;;;;;1.15;1.08;;;;;;;;;;7394864;19;20224;-89
2023/06/11 06:13:53;;;;;;;0.75;0.75;;;;;;;;;;7398390;19;20141;-90
2023/06/11 06:16:20;;;;;;;0.50;0.50;;;;;;;;;;7400490;19;20216;-90
2023/06/11 06:18:46;;;;;;;1.10;1.02;;;;;;;;;;7398298;19;20471;-90
2023/06/11 06:21:13;;;;;;;0.77;0.77;;;;;;;;;;7400947;19;20617;-91
2023/06/11 06:23:40;;;;;;;1.52;1.17;;;;;;;;;;7394471;19;20524;-90
2023/06/11 06:26:07;;;;;;;0.93;0.68;;;;;;;;;;7394683;19;20161;-91
2023/06/11 06:28:35;;;;;;;1.50;1.10;;;;;;;;;;7396736;19;20133;-91
2023/06/11 06:31:02;;;;;;;1.23;1.13;;;;;;;;;;7393804;19;20212;-90
2023/06/11 06:33:33;;;;;;;0.90;0.90;;;;;;;;;;7395993;19;20163;-90
2023/06/11 06:36:02;;;;;;;0.90;0.90;;;;;;;;;;7394542;19;20556;-90
2023/06/11 06:38:31;;;;;;;1.00;1.00;;;;;;;;;;7392371;19;20141;-91
2023/06/11 06:40:57;;;;;;;0.75;0.75;;;;;;;;;;7413455;19;20140;-91
2023/06/11 06:43:24;;;;;;;0.95;0.95;;;;;;;;;;7403541;19;20137;-91
2023/06/11 06:45:51;;;;;;;1.02;1.02;;;;;;;;;;7408739;19;20140;-91
2023/06/11 06:48:18;;;;;;;1.48;1.38;;;;;;;;;;7403473;19;20144;-92
2023/06/11 06:50:45;;;;;;;0.93;0.93;;;;;;;;;;7404196;19;20160;-91
2023/06/11 06:53:11;;;;;;;0.73;0.73;;;;;;;;;;7402422;19;20165;-91
2023/06/11 06:55:38;;;;;;;1.25;1.15;;;;;;;;;;7398252;19;20215;-92
2023/06/11 06:58:05;;;;;;;1.33;1.25;;;;;;;;;;7397483;19;20144;-91
2023/06/11 07:00:32;;;;;;;0.60;0.60;;;;;;;;;;7397373;19;20155;-91
2023/06/11 07:02:58;;;;;;;0.50;0.50;;;;;;;;;;7396152;19;20145;-91
2023/06/11 07:05:25;;;;;;;1.33;1.27;;;;;;;;;;7392647;19;20499;-91
2023/06/11 07:07:52;;;;;;;0.95;0.95;;;;;;;;;;7397093;19;21421;-91
2023/06/11 07:10:24;;;;;;;1.05;1.05;;;;;;;;;;7400169;19;20200;-90
2023/06/11 07:12:51;;;;;;;1.75;1.45;;;;;;;;;;7400083;19;20190;-91
2023/06/11 07:15:17;;;;;;;1.33;1.25;;;;;;;;;;7401153;19;20213;-91
2023/06/11 07:17:44;;;;;;;1.30;1.25;;;;;;;;;;7399419;19;20133;-89
2023/06/11 07:20:11;;;;;;;0.85;0.85;;;;;;;;;;7396435;19;20242;-90
2023/06/11 07:22:39;;;;;;;0.70;0.70;;;;;;;;;;7394981;19;20161;-90
2023/06/11 07:25:06;;;;;;;0.68;0.68;;;;;;;;;;7397472;19;20141;-90
2023/06/11 07:27:33;;;;;;;1.65;1.52;;;;;;;;;;7400074;19;21496;-90
2023/06/11 07:30:00;;;;;;;1.23;1.23;;;;;;;;;;7397013;19;20148;-90
2023/06/11 07:32:26;;;;;;;0.98;0.95;;;;;;;;;;7395237;19;20169;-91
2023/06/11 07:34:53;;;;;;;0.95;0.95;;;;;;;;;;7400844;19;20136;-90
2023/06/11 07:45:37;;;;;;;1.23;1.17;;;;;;;;;;7391328;19;20579;-89
2023/06/11 07:48:52;;;;;;;0.65;0.60;;;;;;;;;;7397430;19;20145;-89
2023/06/11 07:55:44;;;;;;;;;;;;;;;;;;;;;
2023/06/11 07:58:20;;;;;;;1.58;0.93;;;;;;;;;;7387581;19;20140;-90
2023/06/11 08:00:47;;;;;;;1.73;1.08;;;;;;;;;;7392618;19;20170;-90
2023/06/11 08:04:01;;;;;;;1.35;1.17;;;;;;;;;;7393065;19;20168;-89
2023/06/11 08:07:20;;;;;;;;;;;;;;;;;;;;;
2023/06/11 08:10:10;;;;;;;0.68;0.68;;;;;;;;;;7401716;19;20136;-89
2023/06/11 08:13:16;;;;;;;;;;;;;;;;;;;;;
2023/06/11 08:15:55;;;;;;;0.90;0.90;;;;;;;;;;7398144;19;20592;-90
2023/06/11 08:18:22;;;;;;;1.55;1.38;;;;;;;;;;7391504;19;20137;-89
2023/06/11 08:20:49;;;;;;;1.67;1.58;;;;;;;;;;7392554;19;20256;-91
2023/06/11 08:23:16;;;;;;;0.93;0.93;;;;;;;;;;7393597;19;20526;-91
2023/06/11 08:25:43;;;;;;;0.90;0.90;;;;;;;;;;7399702;19;20153;-90
2023/06/11 08:28:10;;;;;;;1.30;1.23;;;;;;;;;;7399587;19;20137;-90
2023/06/11 08:30:38;;;;;;;1.90;1.77;;;;;;;;;;7401009;19;20142;-90
2023/06/11 08:33:05;;;;;;;0.60;0.60;;;;;;;;;;7399546;19;20172;-92
2023/06/11 08:35:32;;;;;;;4.82;1.50;;;;;;;;;;7400152;19;20145;-90
2023/06/11 08:37:59;;;;;;;1.45;1.35;;;;;;;;;;7398647;19;20148;-89
2023/06/11 08:40:27;;;;;;;1.20;1.10;;;;;;;;;;7398808;19;20460;-89
2023/06/11 08:58:46;;;;;;;0.88;0.88;;;;;;;;;;7396847;19;20124;-89
2023/06/11 09:01:52;;;;;;;1.35;1.23;;;;;;;;;;7396141;19;20152;-90
2023/06/11 09:04:21;;;;;;;1.25;1.25;;;;;;;;;;7391925;19;20133;-89
2023/06/11 09:06:59;;;;;;;1.15;1.08;;;;;;;;;;7392525;19;20630;-88
2023/06/11 09:09:29;;;;;;;1.27;1.15;;;;;;;;;;7392594;19;20152;-88
2023/06/11 09:11:56;;;;;;;1.30;1.20;;;;;;;;;;7391704;19;20176;-89
2023/06/11 09:14:22;;;;;;;1.73;1.63;;;;;;;;;;7393415;19;20132;-88
2023/06/11 09:16:49;;;;;;;1.13;1.13;;;;;;;;;;7394803;19;20145;-89
2023/06/11 09:19:17;;;;;;;0.52;0.52;;;;;;;;;;7393526;19;20148;-88
2023/06/11 09:21:57;;;;;;;1.27;1.25;;;;;;;;;;7394419;19;20200;-87
2023/06/11 09:24:24;;;;;;;1.25;1.15;;;;;;;;;;7396166;19;20136;-86
2023/06/11 09:27:10;;;;;;;1.30;1.15;;;;;;;;;;7393772;19;20141;-88
2023/06/11 09:29:43;;;;;;;1.25;1.25;;;;;;;;;;7392049;19;20144;-89
2023/06/11 09:32:11;;;;;;;1.10;1.00;;;;;;;;;;7388534;19;20181;-88
2023/06/11 09:34:57;;;;;;;0.98;0.98;;;;;;;;;;7391433;19;20150;-86
2023/06/11 09:37:24;;;;;;;1.65;1.55;;;;;;;;;;7393751;19;20125;-88
2023/06/11 09:39:51;;;;;;;1.65;1.55;;;;;;;;;;7393994;19;20466;-87
2023/06/11 09:42:26;;;;;;;1.58;1.48;;;;;;;;;;7396233;19;20172;-87
2023/06/11 09:45:00;;;;;;;1.70;1.60;;;;;;;;;;7393822;19;20140;-88
2023/06/11 09:47:28;;;;;;;1.58;1.48;;;;;;;;;;7395843;19;20129;-87
2023/06/11 09:49:55;;;;;;;1.10;1.10;;;;;;;;;;7397618;19;20172;-89
2023/06/11 09:52:22;;;;;;;1.13;1.13;;;;;;;;;;7394815;19;20156;-86
2023/06/11 09:54:50;;;;;;;1.10;1.08;;;;;;;;;;7396338;19;20167;-88
2023/06/11 09:57:51;;;;;;;0.88;0.88;;;;;;;;;;7389088;19;20147;-88
2023/06/11 10:00:21;;;;;;;2.22;1.13;;;;;;;;;;7386732;19;20132;-88
2023/06/11 10:03:02;;;;;;;1.42;1.33;;;;;;;;;;7390777;19;20712;-90
2023/06/11 10:05:29;;;;;;;1.30;1.20;;;;;;;;;;7389123;19;20133;-86
2023/06/11 10:08:01;;;;;;;1.45;1.38;;;;;;;;;;7398423;19;20614;-89
2023/06/11 10:10:29;;;;;;;0.73;0.73;;;;;;;;;;7396081;19;20505;-89
2023/06/11 10:12:56;;;;;;;1.27;1.20;;;;;;;;;;7397537;19;20165;-88
2023/06/11 10:15:24;;;;;;;1.92;1.38;;;;;;;;;;7395918;19;20137;-90
2023/06/11 10:17:58;;;;;;;2.13;1.10;;;;;;;;;;7393609;19;20610;-90
2023/06/11 10:20:31;;;;;;;1.10;1.10;;;;;;;;;;7393192;19;20145;-92
2023/06/11 10:23:06;;;;;;;0.95;0.95;;;;;;;;;;7394683;19;20145;-90
2023/06/11 10:39:54;;;;;;;2.67;1.50;;;;;;;;;;7390187;19;20598;-91
2023/06/11 10:42:28;;;;;;;1.45;1.35;;;;;;;;;;7389942;19;20267;-91
2023/06/11 10:48:51;;;;;;;1.83;1.63;;;;;;;;;;7392676;19;20158;-91
2023/06/11 10:51:42;;;;;;;1.08;1.08;;;;;;;;;;7388175;19;20169;-92
2023/06/11 10:54:09;;;;;;;1.50;1.40;;;;;;;;;;7396625;19;20149;-92
2023/06/11 10:56:47;;;;;;;1.20;1.20;;;;;;;;;;7400131;19;20159;-90
2023/06/11 10:59:13;;;;;;;1.30;1.30;;;;;;;;;;7406954;19;20129;-92
2023/06/11 11:01:40;;;;;;;0.70;0.70;;;;;;;;;;7400804;19;20189;-90
2023/06/11 11:04:07;;;;;;;1.08;1.08;;;;;;;;;;7397978;19;20148;-89
2023/06/11 11:06:36;;;;;;;1.52;1.38;;;;;;;;;;7403222;19;20145;-91
2023/06/11 11:09:11;;;;;;;0.98;0.98;;;;;;;;;;7402107;19;20157;-91
2023/06/11 11:11:41;;;;;;;0.90;0.90;;;;;;;;;;7406864;19;20156;-90
2023/06/11 11:14:08;;;;;;;1.20;0.73;;;;;;;;;;7404761;19;20148;-89
2023/06/11 11:16:35;;;;;;;1.58;1.38;;;;;;;;;;7404755;19;20612;-89
2023/06/11 11:19:02;;;;;;;1.02;1.02;;;;;;;;;;7403888;19;20141;-89
2023/06/11 11:21:30;;;;;;;1.25;1.17;;;;;;;;;;7402499;19;20172;-87
2023/06/11 11:23:57;;;;;;;0.82;0.82;;;;;;;;;;7401614;19;20163;-89
2023/06/11 11:26:24;;;;;;;0.77;0.77;;;;;;;;;;7401970;19;20169;-90
2023/06/11 11:28:51;;;;;;;1.52;1.45;;;;;;;;;;7399073;19;20196;-89
2023/06/11 11:31:20;;;;;;;4.63;1.52;;;;;;;;;;7406795;19;20512;-88
2023/06/11 11:33:47;;;;;;;0.57;0.57;;;;;;;;;;7411831;19;20176;-88
2023/06/11 11:36:14;;;;;;;1.63;1.10;;;;;;;;;;7412186;19;20141;-87
2023/06/11 11:38:40;;;;;;;1.10;1.10;;;;;;;;;;7407040;19;20169;-88
2023/06/11 11:41:09;;;;;;;1.00;0.70;;;;;;;;;;7411804;19;20224;-88
2023/06/11 11:43:37;;;;;;;1.25;1.23;;;;;;;;;;7407344;19;20152;-89
2023/06/11 11:46:14;;;;;;;1.15;1.15;;;;;;;;;;7402042;19;20164;-88
2023/06/11 11:48:42;;;;;;;1.02;1.02;;;;;;;;;;7406772;19;20504;-88
2023/06/11 11:51:11;;;;;;;0.73;0.73;;;;;;;;;;7407582;19;20152;-88
2023/06/11 11:53:39;;;;;;;1.02;1.02;;;;;;;;;;7409282;19;20145;-87
2023/06/11 11:56:06;;;;;;;0.93;0.93;;;;;;;;;;7403057;19;20145;-88
2023/06/11 11:58:40;;;;;;;1.00;0.98;;;;;;;;;;7405855;19;20143;-88
2023/06/11 12:01:21;;;;;;;0.93;0.80;;;;;;;;;;7407390;19;20617;-88
2023/06/11 12:04:00;;;;;;;0.95;0.80;;;;;;;;;;7404013;19;20149;-90
2023/06/11 12:06:27;;;;;;;1.13;1.02;;;;;;;;;;7404173;19;20611;-90
2023/06/11 12:08:54;;;;;;;1.23;1.13;;;;;;;;;;7406452;19;20221;-89
2023/06/11 12:11:21;;;;;;;0.68;0.68;;;;;;;;;;7407264;19;20516;-89
2023/06/11 12:13:48;;;;;;;0.90;0.90;;;;;;;;;;7400285;19;20141;-89
2023/06/11 12:16:15;;;;;;;0.98;0.98;;;;;;;;;;7403878;19;20161;-90
2023/06/11 12:18:42;;;;;;;0.70;0.70;;;;;;;;;;7404979;19;20156;-89
2023/06/11 12:21:09;;;;;;;1.08;1.08;;;;;;;;;;7404038;19;20658;-89
2023/06/11 12:23:36;;;;;;;0.70;0.70;;;;;;;;;;7407032;19;20145;-89
2023/06/11 12:26:03;;;;;;;0.68;0.68;;;;;;;;;;7406730;19;20622;-89
2023/06/11 12:28:30;;;;;;;0.75;0.75;;;;;;;;;;7411108;19;20142;-90
2023/06/11 12:30:57;;;;;;;0.95;0.90;;;;;;;;;;7409490;19;20145;-91
2023/06/11 12:33:23;;;;;;;0.73;0.73;;;;;;;;;;7411753;19;20201;-90
2023/06/11 12:35:50;;;;;;;1.15;0.88;;;;;;;;;;7411286;19;20165;-91
2023/06/11 12:38:18;;;;;;;0.80;0.80;;;;;;;;;;7409103;19;20167;-90
2023/06/11 12:40:46;;;;;;;1.55;1.17;;;;;;;;;;7405064;19;20202;-90
2023/06/11 12:43:12;;;;;;;1.08;0.90;;;;;;;;;;7403273;19;21528;-90
2023/06/11 12:45:39;;;;;;;0.50;0.50;;;;;;;;;;7404141;19;20141;-89
2023/06/11 12:48:06;;;;;;;2.42;1.40;;;;;;;;;;7403682;19;20141;-89
2023/06/11 12:50:32;;;;;;;1.13;1.02;;;;;;;;;;7403245;19;20141;-89
2023/06/11 12:53:00;;;;;;;0.80;0.80;;;;;;;;;;7402885;19;20153;-90
2023/06/11 12:55:27;;;;;;;0.80;0.80;;;;;;;;;;7406070;19;20605;-90
2023/06/11 12:57:53;;;;;;;0.88;0.88;;;;;;;;;;7407283;19;20137;-89
2023/06/11 13:00:21;;;;;;;0.68;0.68;;;;;;;;;;7404479;19;20171;-90
2023/06/11 13:02:48;;;;;;;2.05;1.15;;;;;;;;;;7395864;19;20156;-89
2023/06/11 13:05:15;;;;;;;0.70;0.70;;;;;;;;;;7399226;19;20221;-90
2023/06/11 13:07:42;;;;;;;0.52;0.52;;;;;;;;;;7400728;19;20149;-90
2023/06/11 13:10:09;;;;;;;0.77;0.77;;;;;;;;;;7400379;19;20193;-90
2023/06/11 13:12:36;;;;;;;1.95;0.73;;;;;;;;;;7400915;19;20823;-91
2023/06/11 13:15:03;;;;;;;1.25;1.15;;;;;;;;;;7405093;19;20548;-91
2023/06/11 13:17:31;;;;;;;0.60;0.60;;;;;;;;;;7400191;19;20137;-91
2023/06/11 13:19:57;;;;;;;0.80;0.80;;;;;;;;;;7401673;19;20145;-90
2023/06/11 13:22:24;;;;;;;1.00;0.93;;;;;;;;;;7400101;19;20231;-90
2023/06/11 13:24:51;;;;;;;0.95;0.95;;;;;;;;;;7398399;19;20136;-91
2023/06/11 13:27:18;;;;;;;1.48;1.38;;;;;;;;;;7406880;19;20144;-91
2023/06/11 13:29:45;;;;;;;0.60;0.60;;;;;;;;;;7402268;19;20176;-91
2023/06/11 13:32:12;;;;;;;0.95;0.95;;;;;;;;;;7401519;19;20172;-92
2023/06/11 13:34:38;;;;;;;0.90;0.90;;;;;;;;;;7422682;19;20136;-94
2023/06/11 13:37:05;;;;;;;0.95;0.80;;;;;;;;;;7426464;19;20133;-92
2023/06/11 13:39:35;;;;;;;0.90;0.90;;;;;;;;;;7426186;19;20133;-92
2023/06/11 13:42:02;;;;;;;0.98;0.98;;;;;;;;;;7420742;19;20177;-92
2023/06/11 13:44:28;;;;;;;0.70;0.70;;;;;;;;;;7415671;19;20140;-93
2023/06/11 13:46:55;;;;;;;3.03;1.70;;;;;;;;;;7399631;19;20142;-92
2023/06/11 13:49:22;;;;;;;2.35;1.20;;;;;;;;;;7394998;19;20125;-92
2023/06/11 13:51:52;;;;;;;0.65;0.65;;;;;;;;;;7395330;19;20161;-92
2023/06/11 13:54:19;;;;;;;0.82;0.82;;;;;;;;;;7395510;19;20133;-92
2023/06/11 13:56:46;;;;;;;0.85;0.85;;;;;;;;;;7393582;19;20139;-92
2023/06/11 13:59:12;;;;;;;0.98;0.98;;;;;;;;;;7400276;19;20176;-89
2023/06/11 14:01:39;;;;;;;1.02;0.95;;;;;;;;;;7396271;19;20178;-90
2023/06/11 14:04:07;;;;;;;0.70;0.70;;;;;;;;;;7398535;19;20144;-89
2023/06/11 14:06:35;;;;;;;0.80;0.80;;;;;;;;;;7400391;19;20156;-89
2023/06/11 14:09:02;;;;;;;0.90;0.90;;;;;;;;;;7401467;19;20133;-90
2023/06/11 14:11:29;;;;;;;0.70;0.70;;;;;;;;;;7400336;19;20569;-90
2023/06/11 14:13:58;;;;;;;0.75;0.75;;;;;;;;;;7402641;19;20143;-89
2023/06/11 14:16:25;;;;;;;0.75;0.75;;;;;;;;;;7403509;19;20149;-90
2023/06/11 14:18:52;;;;;;;1.30;1.13;;;;;;;;;;7399720;19;20149;-89
2023/06/11 14:21:18;;;;;;;0.77;0.77;;;;;;;;;;7400251;19;20188;-89
2023/06/11 14:23:46;;;;;;;0.68;0.68;;;;;;;;;;7400065;19;20610;-89
2023/06/11 14:26:14;;;;;;;0.95;0.95;;;;;;;;;;7399584;19;20151;-90
2023/06/11 14:28:40;;;;;;;3.00;1.58;;;;;;;;;;7408415;19;20141;-90
2023/06/11 14:31:07;;;;;;;0.60;0.60;;;;;;;;;;7406589;19;20161;-90
2023/06/11 14:33:34;;;;;;;1.00;1.00;;;;;;;;;;7407804;19;20145;-90
2023/06/11 14:36:04;;;;;;;1.08;0.93;;;;;;;;;;7405588;19;20145;-89
2023/06/11 14:38:32;;;;;;;0.60;0.60;;;;;;;;;;7405952;19;20185;-91
2023/06/11 14:40:59;;;;;;;0.75;0.75;;;;;;;;;;7403290;19;20137;-91
2023/06/11 14:43:26;;;;;;;0.73;0.73;;;;;;;;;;7403675;19;20173;-90
2023/06/11 14:45:52;;;;;;;0.57;0.57;;;;;;;;;;7404961;19;20314;-91
2023/06/11 14:48:19;;;;;;;0.63;0.63;;;;;;;;;;7398633;19;20510;-91
2023/06/11 14:50:46;;;;;;;4.47;1.20;;;;;;;;;;7400856;19;20131;-91
2023/06/11 14:53:12;;;;;;;0.63;0.63;;;;;;;;;;7398355;19;20183;-91
2023/06/11 14:55:39;;;;;;;0.57;0.57;;;;;;;;;;7400254;19;20476;-92
2023/06/11 14:58:06;;;;;;;0.70;0.70;;;;;;;;;;7400170;19;20224;-89
2023/06/11 15:00:33;;;;;;;0.60;0.60;;;;;;;;;;7402004;19;20160;-89
2023/06/11 15:02:59;;;;;;;0.57;0.57;;;;;;;;;;7402869;19;20179;-89
2023/06/11 15:05:26;;;;;;;1.20;1.10;;;;;;;;;;7401417;19;20144;-90
2023/06/11 15:07:53;;;;;;;0.75;0.75;;;;;;;;;;7406447;19;20148;-90
2023/06/11 15:10:20;;;;;;;1.30;1.23;;;;;;;;;;7409271;19;20147;-91
2023/06/11 15:12:46;;;;;;;0.60;0.60;;;;;;;;;;7404170;19;20507;-89
2023/06/11 15:15:13;;;;;;;0.77;0.77;;;;;;;;;;7404166;19;20144;-90
2023/06/11 15:17:40;;;;;;;1.85;1.23;;;;;;;;;;7403018;19;20147;-90
2023/06/11 15:20:07;;;;;;;1.13;0.93;;;;;;;;;;7407266;19;20160;-90
2023/06/11 15:22:39;;;;;;;0.98;0.98;;;;;;;;;;7405097;19;20179;-89
